• Join FlightAware (Why Join?)
  • Login
  • US Flag 
05:43AM EST


 

Airport Tracker/Info


-or-


 

Live Flight TrackerFlight Track Log ✈ CES2232 ✈ 26-Oct-2013 ✈ ZUJZ / JZH - ZLXY / XIY

Flight Track Log - Related Links

Times and Time Zones

All times are in EDT time to prevent confusion due to time zone crossing. See the CES2232 flight status page for this flight to view local times or setup timezone preferences in your user account.

Time Position Orientation Groundspeed Altitude Reporting Facility
EDT Latitude Longitude Course Direction KTS MPH feet Rate Location/Type
08:52AM 33.3446 105.1500 68° East  Level Estimated
08:53AM 33.3728 105.2368 69° East  Level Estimated
08:54AM 33.4009 105.3237 69° East  Level Estimated
08:55AM 33.4289 105.4106 69° East  Level Estimated
08:56AM 33.4569 105.4976 69° East  Level Estimated
08:57AM 33.4848 105.5846 69° East  Level Estimated
08:58AM 33.5126 105.6717 69° East  Level Estimated
08:59AM 33.5404 105.7588 69° East  Level Estimated
09:00AM 33.5681 105.8460 69° East  Level Estimated
09:01AM 33.5958 105.9333 69° East  Level Estimated
09:02AM 33.6234 106.0206 69° East  Level Estimated
09:03AM 33.6509 106.1079 69° East  Level Estimated
09:04AM 33.6784 106.1953 69° East  Level Estimated
09:05AM 33.7058 106.2828 69° East  Level Estimated
09:06AM 33.7332 106.3703 69° East  Level Estimated
09:07AM 33.7604 106.4579 69° East  Level Estimated
09:08AM 33.7877 106.5456 69° East  Level Estimated
09:09AM 33.8148 106.6333 70° East  Level Estimated
09:10AM 33.8419 106.7210 70° East  Level Estimated
09:11AM 33.8690 106.8088 70° East  Level Estimated
09:12AM 33.8960 106.8967 70° East  Level Estimated
09:13AM 33.9229 106.9846 70° East  Level Estimated
09:14AM 33.9497 107.0726 70° East  Level Estimated
09:15AM 33.9765 107.1606 70° East  Level Estimated
09:16AM 34.0033 107.2487 70° East  Level Estimated
09:17AM 34.0299 107.3368 70° East  Level Estimated
09:18AM 34.0565 107.4250 70° East  Level Estimated
09:19AM 34.0831 107.5133 70° East  Level Estimated
09:20AM 34.1096 107.6016 70° East  Level Estimated
09:21AM 34.1360 107.6899 70° East  Level Estimated
09:22AM 34.1623 107.7784 70° East  Level Estimated
09:23AM 34.1886 107.8668 70° East  Level Estimated
09:24AM 34.2148 107.9554 70° East  Level Estimated
09:25AM 34.2410 108.0440 70° East  Level Estimated
09:26AM 34.2671 108.1326 70° East  Level Estimated
09:27AM 34.2931 108.2213 70° East  Level Estimated
09:28AM 34.3191 108.3100 70° East  Level Estimated
09:29AM 34.3450 108.3988 71° East  Level Estimated
09:30AM 34.3708 108.4877 71° East  Level Estimated
09:31AM 34.3966 108.5766 71° East  Level Estimated
09:32AM 34.4223 108.6656 71° East  Level Estimated
09:33AM 34.4471 108.7516 71° East  Level Estimated
09:34AM 34.4471 108.7516 121° Southeast  Level Estimated
09:35AM 34.4471 108.7516 121° Southeast  Level Estimated
09:36AM 34.4471 108.7516 121° Southeast  Level Estimated
09:37AM 34.4471 108.7516 121° Southeast  Level Estimated
09:38AM 34.4471 108.7516 121° Southeast  Level Estimated
09:39AM 34.4471 108.7516 121° Southeast  Level Estimated
09:40AM 34.4471 108.7516 121° Southeast  Level Estimated
09:41AM 34.4471 108.7516 121° Southeast  Level Estimated
09:42AM 34.4471 108.7516 121° Southeast  Level Estimated
09:43AM 34.4471 108.7516 121° Southeast  Level Estimated
09:44AM 34.4471 108.7516 121° Southeast  Level Estimated
09:45AM 34.4471 108.7516 121° Southeast  Level Estimated
09:46AM 34.4471 108.7516 121° Southeast  Level Estimated
09:47AM 34.4471 108.7516 121° Southeast  Level Estimated
09:48AM 34.4471 108.7516 121° Southeast  Level Estimated